Terminal Aerodrome Forecast
Issued by NWS

Home | Current Version | Previous Version | Text Only | Print | Product List | Glossary On
Versions: 1 2 3 4 5 6 7 8 9 10 11 12 13
000
FTUS43 KMQT 200522
TAFIWD
TAF
KIWD 200522Z 2006/2106 20007KT P6SM SCT200
     FM201800 23010KT P6SM SCT120
     FM202100 27007KT P6SM VCSH BKN050
     FM202300 27006KT P6SM BKN100=

USA.gov is the U.S. government's official web portal to all federal, state and local government web resources and services.